Time;durP1;ratioP1;P1;durP2;ratioP2;P2;SDS_P1;SDS_P2;PMS_P1;PMS_P2;Temp;Humidity;BMP_temperature;BMP_pressure;BME280_temperature;BME280_humidity;BME280_pressure;Samples;Min_cycle;Max_cycle;Signal;HPM_P1;HPM_P2
2022/12/31 00:00:33;;;;;;;12.30;7.30;;;;;;;5.77;73.50;96769.69;105701;1278;22612;-84
2022/12/31 00:03:24;;;;;;;10.80;7.30;;;;;;;5.74;73.51;96780.84;105734;1295;22503;-83
2022/12/31 00:05:56;;;;;;;11.70;7.20;;;;;;;5.69;73.54;96778.67;105766;1303;22576;-83
2022/12/31 00:08:29;;;;;;;11.80;7.70;;;;;;;5.63;73.56;96777.70;105799;1301;23215;-84
2022/12/31 00:11:01;;;;;;;10.90;7.10;;;;;;;5.57;73.58;96775.09;105708;1300;42312;-83
2022/12/31 00:13:32;;;;;;;12.60;7.80;;;;;;;5.53;73.81;96770.16;105784;1294;22463;-83
2022/12/31 00:16:13;;;;;;;12.50;7.90;;;;;;;5.50;73.94;96762.16;105772;1299;22518;-83
2022/12/31 00:18:48;;;;;;;11.10;7.00;;;;;;;5.45;74.25;96767.13;105748;1294;23213;-83
2022/12/31 00:21:20;;;;;;;9.50;6.70;;;;;;;5.51;74.30;96752.70;105757;1295;22468;-83
2022/12/31 00:23:54;;;;;;;13.00;7.40;;;;;;;5.56;74.20;96760.94;105777;1300;25320;-83
2022/12/31 00:26:28;;;;;;;10.40;6.40;;;;;;;5.60;74.09;96760.81;105859;1281;25083;-83
2022/12/31 00:29:01;;;;;;;9.00;5.60;;;;;;;5.59;74.26;96761.17;105801;1285;26096;-82
2022/12/31 00:31:34;;;;;;;9.60;5.70;;;;;;;5.69;74.41;96761.52;105667;1302;23677;-83
2022/12/31 00:34:07;;;;;;;10.60;5.80;;;;;;;5.83;74.50;96757.30;105760;1302;25128;-83
2022/12/31 00:36:41;;;;;;;8.30;5.20;;;;;;;6.02;74.50;96764.86;105835;1300;25954;-83
2022/12/31 00:39:13;;;;;;;10.30;5.90;;;;;;;6.08;73.98;96761.48;105729;1302;53526;-83
2022/12/31 00:41:44;;;;;;;9.50;5.60;;;;;;;6.08;73.82;96764.90;105695;1302;42296;-83
2022/12/31 00:44:16;;;;;;;8.70;5.50;;;;;;;6.09;73.80;96758.02;105762;1287;22487;-83
2022/12/31 00:46:49;;;;;;;8.90;4.80;;;;;;;6.08;73.95;96752.37;105764;1302;23812;-83
2022/12/31 00:49:21;;;;;;;7.20;3.50;;;;;;;6.04;74.23;96756.05;105577;1303;24502;-83
2022/12/31 00:51:52;;;;;;;6.00;3.10;;;;;;;6.33;75.21;96752.52;105831;1281;23285;-83
2022/12/31 00:54:26;;;;;;;7.60;4.70;;;;;;;6.69;75.04;96752.63;105729;1289;22492;-82
2022/12/31 00:56:58;;;;;;;5.10;2.50;;;;;;;6.78;74.21;96750.20;105767;1295;23827;-84
2022/12/31 00:59:29;;;;;;;4.80;2.50;;;;;;;7.07;73.95;96735.66;105790;1301;22472;-83
2022/12/31 01:02:00;;;;;;;5.20;3.20;;;;;;;7.43;73.05;96730.80;105708;1301;22465;-84
2022/12/31 01:04:32;;;;;;;4.60;3.00;;;;;;;7.69;71.93;96749.15;105745;1294;22501;-85
2022/12/31 01:07:03;;;;;;;6.20;2.60;;;;;;;7.77;71.84;96728.87;105749;1281;22472;-86
2022/12/31 01:09:34;;;;;;;3.00;1.70;;;;;;;7.90;71.18;96738.22;105733;1300;23181;-86
2022/12/31 01:12:07;;;;;;;4.80;2.30;;;;;;;8.00;70.75;96743.75;105689;1300;22476;-87
2022/12/31 01:14:39;;;;;;;3.20;2.20;;;;;;;8.11;70.44;96722.08;105752;1284;22530;-85
2022/12/31 01:17:12;;;;;;;2.90;1.80;;;;;;;8.21;70.14;96738.82;105775;1302;27010;-84
2022/12/31 01:19:45;;;;;;;3.90;2.60;;;;;;;8.16;70.24;96734.30;105747;1302;25317;-86
2022/12/31 01:22:16;;;;;;;5.40;2.60;;;;;;;8.16;70.38;96729.75;105694;1302;30305;-85
2022/12/31 01:24:47;;;;;;;4.50;2.40;;;;;;;8.15;69.93;96724.09;105860;1295;22466;-84
2022/12/31 01:27:18;;;;;;;4.10;2.50;;;;;;;8.11;69.64;96733.33;105769;1293;22925;-84
2022/12/31 01:29:50;;;;;;;4.80;3.30;;;;;;;8.01;69.62;96724.54;105675;1294;54251;-85
2022/12/31 01:32:21;;;;;;;5.50;3.00;;;;;;;7.92;70.00;96723.66;105675;1302;47577;-84
2022/12/31 01:34:52;;;;;;;7.50;3.50;;;;;;;7.87;70.04;96732.39;105832;1293;22636;-83
2022/12/31 01:37:26;;;;;;;5.30;2.80;;;;;;;7.80;70.26;96743.55;105870;1302;22513;-84
2022/12/31 01:39:58;;;;;;;4.60;2.60;;;;;;;7.81;70.78;96729.52;105851;1285;22523;-84
2022/12/31 01:42:29;;;;;;;5.80;3.00;;;;;;;7.88;70.44;96715.88;105775;1302;23464;-83
2022/12/31 01:45:01;;;;;;;5.30;3.40;;;;;;;7.88;70.71;96732.23;105757;1288;25467;-83
2022/12/31 01:47:39;;;;;;;4.70;3.10;;;;;;;7.87;70.85;96719.30;105781;1301;24257;-84
2022/12/31 01:50:16;;;;;;;4.00;2.70;;;;;;;7.96;70.71;96723.14;105702;1300;30530;-84
2022/12/31 01:52:50;;;;;;;4.00;2.30;;;;;;;7.93;70.92;96726.68;105763;1302;22548;-86
2022/12/31 01:55:26;;;;;;;4.60;2.50;;;;;;;7.96;70.98;96722.52;105609;1295;25255;-84
2022/12/31 01:58:01;;;;;;;5.20;3.30;;;;;;;7.98;70.77;96727.64;104539;1278;1394384;-84
2022/12/31 02:00:33;;;;;;;6.90;3.10;;;;;;;7.99;70.57;96725.05;105533;1296;46564;-84
2022/12/31 02:03:07;;;;;;;6.90;2.60;;;;;;;7.96;70.90;96708.84;105543;1303;22460;-84
2022/12/31 02:05:45;;;;;;;4.20;2.10;;;;;;;7.99;71.29;96712.27;105537;1294;25480;-86
2022/12/31 02:08:16;;;;;;;3.20;1.70;;;;;;;8.09;71.38;96721.45;105689;1302;22524;-85
2022/12/31 02:10:48;;;;;;;4.70;2.30;;;;;;;8.20;71.08;96727.56;105693;1286;44179;-85
2022/12/31 02:13:20;;;;;;;5.40;2.30;;;;;;;8.27;70.73;96714.15;105703;1294;25390;-86
2022/12/31 02:16:00;;;;;;;3.60;2.40;;;;;;;8.27;70.29;96708.51;105758;1300;22478;-84
2022/12/31 02:18:37;;;;;;;4.40;2.40;;;;;;;8.27;70.33;96716.32;105692;1301;58771;-84
2022/12/31 02:21:46;;;;;;;5.70;2.40;;;;;;;8.27;70.35;96708.39;105650;1302;35210;-86
2022/12/31 02:24:37;;;;;;;5.00;3.50;;;;;;;8.26;70.26;96697.94;105554;1302;22527;-85
2022/12/31 02:27:15;;;;;;;4.30;2.70;;;;;;;8.29;70.32;96709.73;105723;1290;25233;-87
2022/12/31 02:30:08;;;;;;;5.10;2.50;;;;;;;8.36;70.10;96715.74;105743;1279;25390;-84
2022/12/31 02:32:49;;;;;;;5.40;2.60;;;;;;;8.39;70.12;96723.52;105753;1274;22544;-87
2022/12/31 02:35:27;;;;;;;3.60;2.60;;;;;;;8.48;70.18;96713.77;105742;1302;25488;-85
2022/12/31 02:38:02;;;;;;;5.60;2.40;;;;;;;8.57;70.12;96705.16;105717;1302;22512;-84
2022/12/31 02:40:36;;;;;;;3.40;2.30;;;;;;;8.65;69.78;96736.52;105717;1302;23896;-83
2022/12/31 02:43:10;;;;;;;3.50;2.40;;;;;;;8.65;69.86;96733.45;105773;1300;22512;-86
2022/12/31 02:45:45;;;;;;;9.50;2.60;;;;;;;8.69;69.77;96741.69;105783;1301;22548;-84
2022/12/31 02:48:40;;;;;;;4.30;2.10;;;;;;;8.62;69.59;96755.06;105816;1278;23148;-84
2022/12/31 02:51:26;;;;;;;4.30;2.80;;;;;;;8.53;69.82;96754.93;105636;1302;50187;-86
2022/12/31 02:54:19;;;;;;;4.70;3.10;;;;;;;8.48;70.06;96763.60;105757;1295;23798;-83
2022/12/31 02:57:00;;;;;;;4.30;2.60;;;;;;;8.41;70.14;96760.71;105773;1300;22512;-84
2022/12/31 03:02:32;;;;;;;5.90;2.20;;;;;;;8.36;70.90;96761.34;105693;1302;50808;-84
2022/12/31 03:05:06;;;;;;;4.90;3.00;;;;;;;8.37;70.82;96769.33;105860;1303;22614;-84
2022/12/31 03:07:39;;;;;;;4.40;2.70;;;;;;;8.26;70.98;96760.59;105729;1303;22462;-85
2022/12/31 03:10:11;;;;;;;5.00;2.70;;;;;;;8.23;71.66;96750.49;105772;1303;22739;-85
2022/12/31 03:12:47;;;;;;;4.80;3.10;;;;;;;8.38;71.69;96754.95;105696;1277;50757;-84
2022/12/31 03:15:21;;;;;;;6.70;3.90;;;;;;;8.35;71.34;96745.54;105752;1285;25325;-85
2022/12/31 03:18:00;;;;;;;4.20;2.70;;;;;;;8.28;71.73;96721.23;105725;1299;22483;-85
2022/12/31 03:23:25;;;;;;;5.50;3.00;;;;;;;8.28;71.80;96744.64;105800;1293;22647;-84
2022/12/31 03:25:57;;;;;;;6.70;3.90;;;;;;;8.17;71.84;96742.87;105786;1301;22566;-85
2022/12/31 03:28:31;;;;;;;7.00;4.50;;;;;;;8.10;72.06;96757.84;105876;1303;22457;-85
2022/12/31 03:31:03;;;;;;;4.70;2.70;;;;;;;7.98;72.04;96753.88;105723;1293;23713;-84
2022/12/31 03:33:37;;;;;;;7.20;4.70;;;;;;;7.86;72.46;96754.39;105811;1302;22582;-84
2022/12/31 03:36:12;;;;;;;7.70;4.40;;;;;;;7.76;72.70;96741.73;105643;1302;26706;-85
2022/12/31 03:38:46;;;;;;;4.60;2.90;;;;;;;7.76;73.30;96740.43;105736;1287;22727;-84
2022/12/31 03:41:17;;;;;;;6.70;4.30;;;;;;;7.83;73.68;96728.67;105675;1287;43979;-87
2022/12/31 03:43:48;;;;;;;6.50;3.70;;;;;;;7.78;73.34;96726.83;105702;1285;24282;-84
2022/12/31 03:46:19;;;;;;;9.30;4.10;;;;;;;7.71;73.59;96735.54;105783;1301;23033;-84
2022/12/31 03:48:51;;;;;;;8.70;5.10;;;;;;;7.67;73.80;96725.17;105710;1303;22623;-83
2022/12/31 03:51:22;;;;;;;6.70;3.50;;;;;;;7.61;74.01;96728.05;105784;1294;23678;-84
2022/12/31 03:53:53;;;;;;;7.30;4.10;;;;;;;7.62;74.55;96721.27;105788;1303;22557;-83
2022/12/31 03:56:26;;;;;;;5.30;3.60;;;;;;;7.61;74.70;96710.17;105680;1302;22733;-84
2022/12/31 03:58:57;;;;;;;7.10;4.20;;;;;;;7.64;75.21;96704.54;105823;1301;24297;-83
2022/12/31 04:01:28;;;;;;;6.10;3.50;;;;;;;7.63;75.32;96712.56;105699;1295;55250;-84
2022/12/31 04:03:59;;;;;;;5.30;3.30;;;;;;;7.58;75.57;96705.02;105766;1290;22510;-83
2022/12/31 04:06:30;;;;;;;6.80;3.60;;;;;;;7.51;75.79;96716.70;105704;1301;22687;-84
2022/12/31 04:09:01;;;;;;;8.20;3.30;;;;;;;7.44;76.09;96712.39;105725;1303;22553;-84
2022/12/31 04:11:35;;;;;;;6.50;4.10;;;;;;;7.43;76.65;96714.75;105788;1301;37171;-85
2022/12/31 04:14:06;;;;;;;5.80;3.30;;;;;;;7.52;77.18;96732.70;105771;1303;26037;-84
2022/12/31 04:16:37;;;;;;;6.60;3.00;;;;;;;7.56;77.19;96718.41;105783;1303;22567;-84
2022/12/31 04:19:08;;;;;;;3.60;2.90;;;;;;;7.60;77.27;96735.06;105808;1300;33287;-86
2022/12/31 04:21:39;;;;;;;5.80;3.60;;;;;;;7.65;77.44;96749.02;105711;1301;22461;-86
2022/12/31 04:24:13;;;;;;;5.70;3.30;;;;;;;7.67;77.43;96764.60;105786;1293;22624;-84
2022/12/31 04:26:44;;;;;;;5.70;3.30;;;;;;;7.69;77.38;96765.13;105713;1301;22518;-85
2022/12/31 04:29:15;;;;;;;6.90;4.30;;;;;;;7.72;77.60;96772.48;105733;1301;22933;-84
2022/12/31 04:31:46;;;;;;;5.90;3.70;;;;;;;7.71;77.61;96767.41;105672;1287;23892;-84
2022/12/31 04:34:17;;;;;;;6.10;4.00;;;;;;;7.70;77.49;96761.23;105775;1303;22509;-84
2022/12/31 04:36:51;;;;;;;5.60;4.00;;;;;;;7.67;77.53;96762.27;105855;1299;22556;-84
2022/12/31 04:39:22;;;;;;;5.90;3.50;;;;;;;7.66;77.79;96765.59;105727;1302;27669;-85
2022/12/31 04:41:56;;;;;;;7.20;4.50;;;;;;;7.63;77.64;96769.33;105672;1302;22874;-85
2022/12/31 04:44:27;;;;;;;5.80;3.80;;;;;;;7.64;77.98;96765.95;105741;1302;22687;-85
2022/12/31 04:46:58;;;;;;;6.00;4.10;;;;;;;7.63;77.84;96762.68;105774;1293;24026;-83
2022/12/31 04:49:30;;;;;;;7.40;4.40;;;;;;;7.60;78.05;96761.66;105675;1302;22583;-84
2022/12/31 04:52:03;;;;;;;6.00;3.70;;;;;;;7.56;78.05;96760.46;105638;1301;81247;-84
2022/12/31 04:54:34;;;;;;;7.40;4.80;;;;;;;7.48;77.95;96762.27;105798;1302;22970;-83
2022/12/31 04:57:06;;;;;;;6.40;3.60;;;;;;;7.38;78.19;96765.80;105725;1303;22461;-84
2022/12/31 04:59:37;;;;;;;6.90;4.90;;;;;;;7.30;78.59;96760.19;105795;1303;30231;-84
2022/12/31 05:02:08;;;;;;;5.90;4.30;;;;;;;7.27;79.00;96755.73;105736;1302;23179;-84
2022/12/31 05:04:39;;;;;;;7.50;4.60;;;;;;;7.24;78.96;96758.94;105809;1302;22480;-84
2022/12/31 05:07:10;;;;;;;6.30;4.20;;;;;;;7.20;79.15;96757.02;105729;1291;24241;-84
2022/12/31 05:09:41;;;;;;;6.80;4.50;;;;;;;7.13;79.39;96749.25;105728;1303;23226;-84
2022/12/31 05:12:12;;;;;;;10.30;4.60;;;;;;;7.11;79.62;96762.43;105809;1287;24849;-83
2022/12/31 05:14:43;;;;;;;9.80;5.60;;;;;;;7.09;80.07;96759.20;105721;1300;22471;-84
2022/12/31 05:17:15;;;;;;;6.00;4.00;;;;;;;7.04;79.92;96755.27;105725;1302;22526;-84
2022/12/31 05:19:48;;;;;;;5.30;3.20;;;;;;;6.98;80.17;96760.33;105656;1302;30216;-84
2022/12/31 05:22:29;;;;;;;5.80;3.20;;;;;;;7.00;80.61;96767.77;105712;1288;22534;-83
2022/12/31 05:25:01;;;;;;;6.80;4.60;;;;;;;7.08;80.94;96778.80;105770;1302;22587;-84
2022/12/31 05:27:32;;;;;;;6.90;4.10;;;;;;;7.18;80.58;96787.89;105751;1299;26613;-83
2022/12/31 05:30:03;;;;;;;4.20;3.20;;;;;;;7.20;80.52;96790.66;105724;1302;37443;-83
2022/12/31 05:32:35;;;;;;;7.40;4.20;;;;;;;7.19;80.30;96805.38;105689;1302;23551;-83
2022/12/31 05:35:07;;;;;;;5.90;3.00;;;;;;;7.22;80.25;96805.39;105838;1295;22517;-85
2022/12/31 05:37:38;;;;;;;6.90;3.10;;;;;;;7.23;80.31;96811.09;105851;1300;22499;-84
2022/12/31 05:40:12;;;;;;;5.30;3.50;;;;;;;7.25;80.37;96803.98;105733;1303;24925;-84
2022/12/31 05:42:43;;;;;;;6.00;3.80;;;;;;;7.33;80.29;96796.04;105713;1302;57772;-83
2022/12/31 05:45:15;;;;;;;5.00;3.80;;;;;;;7.39;80.26;96792.38;105792;1303;22478;-83
2022/12/31 05:47:47;;;;;;;6.40;4.10;;;;;;;7.43;80.12;96788.27;105760;1303;25575;-83
2022/12/31 05:50:22;;;;;;;4.90;3.30;;;;;;;7.48;80.01;96796.99;105689;1302;25580;-84
2022/12/31 05:52:53;;;;;;;5.30;3.20;;;;;;;7.51;79.99;96793.31;105696;1302;24270;-84
2022/12/31 05:55:24;;;;;;;6.30;4.20;;;;;;;7.48;79.89;96796.52;105698;1289;22529;-83
2022/12/31 05:57:55;;;;;;;5.60;3.70;;;;;;;7.47;80.14;96788.91;105685;1302;26536;-83
2022/12/31 06:00:26;;;;;;;5.80;3.20;;;;;;;7.45;80.04;96782.45;105637;1288;25573;-83
2022/12/31 06:02:58;;;;;;;6.80;3.60;;;;;;;7.42;80.37;96789.08;105723;1301;24406;-85
2022/12/31 06:05:30;;;;;;;7.30;3.70;;;;;;;7.41;80.79;96787.69;105736;1302;22500;-84
2022/12/31 06:08:01;;;;;;;5.20;3.10;;;;;;;7.36;80.94;96764.83;105719;1300;25282;-86
2022/12/31 06:10:33;;;;;;;7.90;3.40;;;;;;;7.34;81.26;96785.45;105639;1302;49758;-84
2022/12/31 06:13:13;;;;;;;6.90;3.20;;;;;;;7.35;81.46;96787.09;105835;1303;25823;-87
2022/12/31 06:15:44;;;;;;;5.80;4.00;;;;;;;7.37;81.68;96759.98;105646;1302;22558;-84
2022/12/31 06:18:16;;;;;;;6.50;3.90;;;;;;;7.38;81.74;96777.86;105804;1301;22487;-85
2022/12/31 06:20:47;;;;;;;6.30;3.80;;;;;;;7.39;81.84;96752.02;105616;1302;22545;-83
2022/12/31 06:23:18;;;;;;;6.20;3.30;;;;;;;7.36;81.88;96781.71;105782;1303;22479;-85
2022/12/31 06:25:49;;;;;;;7.00;3.40;;;;;;;7.36;82.37;96763.89;105770;1294;22502;-84
2022/12/31 06:28:20;;;;;;;15.00;5.00;;;;;;;7.41;82.70;96772.52;105832;1287;22443;-84
2022/12/31 06:30:51;;;;;;;7.20;3.60;;;;;;;7.56;82.83;96782.73;105752;1302;51732;-83
2022/12/31 06:33:22;;;;;;;11.20;3.70;;;;;;;7.58;82.62;96769.60;105697;1303;22701;-83
2022/12/31 06:35:58;;;;;;;9.90;4.10;;;;;;;7.62;82.86;96795.23;105696;1303;22459;-85
2022/12/31 06:38:34;;;;;;;5.30;3.30;;;;;;;7.72;83.14;96799.25;105639;1294;22529;-84
2022/12/31 06:41:09;;;;;;;5.60;2.30;;;;;;;7.84;82.97;96802.54;105730;1301;25507;-84
2022/12/31 06:43:42;;;;;;;6.00;4.00;;;;;;;7.87;83.02;96816.23;105740;1301;22463;-84
2022/12/31 06:46:17;;;;;;;3.70;2.40;;;;;;;7.93;82.99;96821.34;105737;1287;22491;-84
2022/12/31 06:48:48;;;;;;;4.30;2.80;;;;;;;7.91;82.73;96840.76;105729;1277;24262;-84
2022/12/31 06:51:21;;;;;;;4.20;2.50;;;;;;;7.87;82.68;96819.80;105663;1291;63632;-84
2022/12/31 06:53:53;;;;;;;3.50;2.50;;;;;;;7.87;82.88;96846.25;105840;1301;22550;-84
2022/12/31 06:56:27;;;;;;;4.10;3.00;;;;;;;7.84;82.82;96853.31;105737;1302;22521;-86
2022/12/31 06:59:00;;;;;;;3.70;2.50;;;;;;;7.83;82.75;96850.45;105867;1300;23994;-83
2022/12/31 07:01:49;;;;;;;3.70;2.60;;;;;;;7.84;82.84;96844.71;105675;1293;22756;-84
2022/12/31 07:05:05;;;;;;;5.20;2.80;;;;;;;7.84;82.96;96853.26;105709;1302;22566;-85
2022/12/31 07:07:45;;;;;;;4.30;2.50;;;;;;;7.80;83.04;96852.88;105528;1303;23188;-85
2022/12/31 07:10:27;;;;;;;4.80;3.00;;;;;;;7.80;83.18;96864.43;105698;1302;81655;-84
2022/12/31 07:13:15;;;;;;;4.20;3.30;;;;;;;7.83;83.33;96854.46;105760;1303;22535;-84
2022/12/31 07:15:59;;;;;;;3.80;2.70;;;;;;;7.85;83.38;96861.92;105655;1303;22471;-84
2022/12/31 07:18:44;;;;;;;5.70;2.30;;;;;;;7.93;83.55;96859.29;105558;1303;27540;-84
2022/12/31 07:21:20;;;;;;;2.90;2.00;;;;;;;8.02;83.50;96872.17;105562;1301;28584;-85
2022/12/31 07:23:56;;;;;;;3.70;2.60;;;;;;;8.11;83.36;96869.75;105777;1300;22469;-84
2022/12/31 07:26:43;;;;;;;3.70;2.40;;;;;;;8.25;83.17;96874.47;105707;1300;23749;-85
2022/12/31 07:29:24;;;;;;;2.60;2.00;;;;;;;8.38;82.72;96860.39;105667;1303;23931;-85
2022/12/31 07:32:01;;;;;;;;;;;;;;;8.53;82.36;96870.77;105808;1293;22449;-85
2022/12/31 07:34:42;;;;;;;3.60;2.60;;;;;;;8.78;81.85;96880.02;105868;1302;22502;-86
2022/12/31 07:37:22;;;;;;;2.50;2.00;;;;;;;9.03;81.08;96882.72;105766;1300;23188;-86
2022/12/31 07:40:03;;;;;;;3.00;1.70;;;;;;;9.29;80.39;96878.75;105653;1290;27025;-85
2022/12/31 07:42:44;;;;;;;3.90;2.70;;;;;;;9.56;79.46;96878.61;105599;1301;38753;-87
2022/12/31 07:45:23;;;;;;;1.40;1.10;;;;;;;9.73;78.55;96882.15;105708;1303;22499;-86
2022/12/31 07:47:55;;;;;;;1.50;1.30;;;;;;;9.77;77.85;96897.62;105840;1303;22525;-85
2022/12/31 07:50:27;;;;;;;2.60;1.80;;;;;;;9.67;77.62;96902.21;105626;1291;47386;-84
2022/12/31 07:53:00;;;;;;;2.40;1.90;;;;;;;9.73;77.69;96907.10;105777;1284;22462;-85
2022/12/31 07:55:31;;;;;;;2.90;2.10;;;;;;;9.78;77.02;96883.85;105790;1303;22720;-85
2022/12/31 07:58:09;;;;;;;2.30;1.60;;;;;;;9.67;76.83;96891.69;105751;1302;22486;-84
2022/12/31 08:00:41;;;;;;;2.60;1.50;;;;;;;9.51;77.10;96895.45;105728;1303;27870;-84
2022/12/31 08:03:22;;;;;;;3.00;1.90;;;;;;;9.39;77.37;96889.55;105795;1306;26510;-85
2022/12/31 08:06:04;;;;;;;2.10;1.20;;;;;;;9.32;77.60;96889.02;105789;1298;22510;-84
2022/12/31 08:08:41;;;;;;;1.90;1.40;;;;;;;9.26;78.03;96893.02;105814;1303;23275;-84
2022/12/31 08:11:19;;;;;;;2.10;1.40;;;;;;;9.23;78.20;96885.03;105664;1299;24949;-84
2022/12/31 08:14:08;;;;;;;1.90;1.30;;;;;;;9.18;78.57;96912.08;105836;1296;22464;-85
2022/12/31 08:16:41;;;;;;;2.20;1.20;;;;;;;9.12;78.63;96921.25;105773;1303;22472;-85
2022/12/31 08:19:22;;;;;;;2.00;1.50;;;;;;;9.06;78.99;96926.31;105751;1303;23586;-83
2022/12/31 08:22:08;;;;;;;2.30;1.70;;;;;;;9.15;79.27;96915.06;105536;1287;25397;-84
2022/12/31 08:24:50;;;;;;;1.70;1.30;;;;;;;9.32;79.20;96908.45;105602;1300;22608;-84
2022/12/31 08:27:32;;;;;;;1.60;1.30;;;;;;;9.43;79.08;96910.73;105646;1305;22532;-84
2022/12/31 08:30:09;;;;;;;3.00;2.00;;;;;;;9.55;78.80;96918.36;105562;1307;23993;-84
2022/12/31 08:32:46;;;;;;;2.80;2.20;;;;;;;9.62;78.28;96920.96;105524;1309;24266;-86
2022/12/31 08:35:36;;;;;;;1.70;1.00;;;;;;;9.59;78.00;96912.50;105648;1277;25754;-85
2022/12/31 08:38:23;;;;;;;2.20;1.60;;;;;;;9.48;77.86;96917.20;105556;1302;22547;-85
2022/12/31 08:41:04;;;;;;;2.40;1.80;;;;;;;9.41;78.38;96918.60;105463;1296;38073;-86
2022/12/31 08:43:52;;;;;;;1.90;1.30;;;;;;;9.38;78.30;96919.14;105608;1304;22505;-88
2022/12/31 08:46:29;;;;;;;3.10;1.60;;;;;;;9.22;78.61;96927.36;105568;1285;22467;-86
2022/12/31 08:49:05;;;;;;;2.40;0.90;;;;;;;9.10;79.05;96927.75;105557;1301;26430;-88
2022/12/31 08:51:38;;;;;;;2.50;1.50;;;;;;;9.03;79.57;96935.83;105692;1302;22491;-86
2022/12/31 08:54:15;;;;;;;2.40;1.50;;;;;;;9.00;79.97;96926.17;105710;1304;22465;-86
2022/12/31 08:56:53;;;;;;;2.30;1.50;;;;;;;9.01;80.24;96933.76;105780;1304;22451;-85
2022/12/31 08:59:37;;;;;;;3.00;1.70;;;;;;;9.04;80.33;96927.05;105677;1301;23979;-84
2022/12/31 09:02:47;;;;;;;3.50;1.80;;;;;;;9.09;80.43;96929.86;105526;1304;62231;-85
2022/12/31 09:05:26;;;;;;;2.90;1.90;;;;;;;9.20;80.47;96937.26;105584;1303;22562;-85
2022/12/31 09:08:09;;;;;;;3.50;2.10;;;;;;;9.28;80.31;96932.98;105579;1281;23222;-85
2022/12/31 09:10:54;;;;;;;2.30;1.50;;;;;;;9.33;80.41;96940.57;105711;1296;48339;-85
2022/12/31 09:13:30;;;;;;;2.40;1.40;;;;;;;9.49;80.40;96932.59;105850;1301;22482;-87
2022/12/31 09:16:11;;;;;;;2.00;1.60;;;;;;;9.67;79.86;96935.95;105775;1299;22473;-85
2022/12/31 09:18:43;;;;;;;1.80;1.20;;;;;;;9.88;79.59;96959.73;105673;1297;23819;-86
2022/12/31 09:21:17;;;;;;;2.00;1.60;;;;;;;10.04;78.82;96941.25;105599;1304;33026;-86
2022/12/31 09:23:49;;;;;;;2.30;1.20;;;;;;;10.10;78.49;96944.98;105736;1302;22477;-85
2022/12/31 09:26:38;;;;;;;1.70;1.10;;;;;;;10.08;78.09;96942.83;105767;1296;22601;-86
2022/12/31 09:29:20;;;;;;;2.70;1.40;;;;;;;10.00;78.05;96937.23;105832;1301;24710;-85
2022/12/31 09:31:59;;;;;;;2.00;1.40;;;;;;;9.96;78.22;96935.36;105810;1304;22468;-84
2022/12/31 09:34:37;;;;;;;2.10;1.60;;;;;;;9.99;78.43;96928.64;105757;1301;22602;-84
2022/12/31 09:37:18;;;;;;;1.50;1.00;;;;;;;10.02;78.31;96937.70;105696;1300;22491;-84
2022/12/31 09:39:50;;;;;;;1.70;1.60;;;;;;;9.95;78.28;96931.88;105758;1290;25693;-84
2022/12/31 09:42:58;;;;;;;2.50;1.80;;;;;;;9.93;78.54;96930.34;105629;1273;26595;-84
2022/12/31 09:45:45;;;;;;;2.20;1.40;;;;;;;9.89;78.65;96910.11;105710;1303;22567;-84
2022/12/31 09:48:49;;;;;;;2.20;1.60;;;;;;;9.91;78.87;96902.27;105762;1303;22462;-84
2022/12/31 09:51:30;;;;;;;1.80;1.50;;;;;;;9.97;78.96;96926.95;105692;1285;45101;-85
2022/12/31 09:54:30;;;;;;;2.10;1.70;;;;;;;10.03;79.11;96929.07;105712;1301;25129;-85
2022/12/31 09:57:16;;;;;;;2.20;1.70;;;;;;;10.13;79.09;96926.02;105791;1303;24300;-83
2022/12/31 09:59:53;;;;;;;3.60;2.00;;;;;;;10.21;78.90;96920.69;105763;1295;22907;-84
2022/12/31 10:02:59;;;;;;;2.70;1.70;;;;;;;10.24;78.67;96920.20;105789;1286;22523;-84
2022/12/31 10:05:53;;;;;;;2.50;1.60;;;;;;;10.27;78.66;96905.79;105710;1303;22501;-85
2022/12/31 10:08:41;;;;;;;2.80;1.80;;;;;;;10.30;78.84;96919.58;105865;1303;22464;-85
2022/12/31 10:11:21;;;;;;;4.10;1.70;;;;;;;10.39;78.79;96924.52;105628;1302;37424;-84
2022/12/31 10:14:07;;;;;;;2.60;1.60;;;;;;;10.47;78.80;96923.67;105795;1301;22466;-85
2022/12/31 10:17:01;;;;;;;3.70;2.20;;;;;;;10.55;78.82;96920.66;105714;1302;22465;-85
2022/12/31 10:20:04;;;;;;;3.60;2.00;;;;;;;10.59;78.59;96921.63;105668;1277;28978;-85
2022/12/31 10:23:03;;;;;;;2.10;1.60;;;;;;;10.60;78.61;96919.45;105597;1286;51954;-89
2022/12/31 10:26:02;;;;;;;2.90;1.70;;;;;;;10.70;78.64;96919.92;105749;1301;22464;-88
2022/12/31 10:28:45;;;;;;;3.60;2.20;;;;;;;10.85;78.58;96911.91;105751;1301;25233;-86
2022/12/31 10:31:31;;;;;;;3.10;1.90;;;;;;;10.95;78.29;96907.67;105813;1279;60988;-86
2022/12/31 10:34:14;;;;;;;4.10;2.20;;;;;;;10.94;78.02;96890.17;105699;1303;22537;-85
2022/12/31 10:36:55;;;;;;;4.10;2.60;;;;;;;10.90;78.16;96883.67;105800;1294;24264;-84
2022/12/31 10:39:38;;;;;;;1.90;1.50;;;;;;;10.88;78.21;96877.54;105828;1286;22478;-86
2022/12/31 10:42:30;;;;;;;3.90;1.60;;;;;;;10.81;78.44;96889.17;105708;1301;22498;-84
2022/12/31 10:45:37;;;;;;;5.80;2.30;;;;;;;10.77;78.57;96884.42;105777;1294;22601;-85
2022/12/31 10:48:51;;;;;;;2.60;1.80;;;;;;;10.72;78.87;96884.67;105804;1283;23968;-88
2022/12/31 10:54:59;;;;;;;4.00;2.30;;;;;;;10.67;79.32;96894.64;102177;1337;545815;-88
2022/12/31 10:58:22;;;;;;;2.70;1.90;;;;;;;10.66;79.53;96900.58;104491;1301;22510;-87
2022/12/31 11:01:02;;;;;;;4.80;2.70;;;;;;;10.66;79.71;96894.80;104623;1301;54659;-87
2022/12/31 11:04:03;;;;;;;3.40;2.20;;;;;;;10.66;79.69;96889.55;104643;1312;23759;-87
2022/12/31 11:07:05;;;;;;;3.30;2.10;;;;;;;10.66;79.62;96893.27;105457;1291;22509;-90
2022/12/31 11:10:19;;;;;;;2.60;1.50;;;;;;;10.63;79.71;96893.28;105334;1288;22502;-89
2022/12/31 11:13:31;;;;;;;2.10;1.70;;;;;;;10.63;79.75;96885.86;105614;1297;22515;-87
2022/12/31 11:16:23;;;;;;;2.40;2.00;;;;;;;10.60;79.85;96892.82;105610;1281;22541;-86
2022/12/31 11:19:02;;;;;;;2.00;1.40;;;;;;;10.62;80.04;96882.48;105588;1285;47808;-86
2022/12/31 11:21:57;;;;;;;1.90;1.30;;;;;;;10.65;80.20;96878.52;105491;1284;23518;-86
2022/12/31 11:24:47;;;;;;;2.90;1.70;;;;;;;10.69;80.15;96877.45;105465;1288;22565;-88
2022/12/31 11:27:37;;;;;;;2.30;1.70;;;;;;;10.73;80.20;96882.23;105555;1284;22525;-88
2022/12/31 11:30:19;;;;;;;2.00;1.10;;;;;;;10.76;80.02;96891.23;105516;1286;24315;-87
2022/12/31 11:33:07;;;;;;;2.50;1.60;;;;;;;10.77;79.94;96898.05;105769;1288;22508;-90
2022/12/31 11:36:01;;;;;;;1.70;1.30;;;;;;;10.78;80.01;96903.98;105692;1301;22467;-88
2022/12/31 11:38:37;;;;;;;2.40;1.40;;;;;;;10.85;80.08;96910.70;105631;1302;22676;-85
2022/12/31 11:41:15;;;;;;;1.30;0.80;;;;;;;10.88;79.91;96903.10;105569;1286;108955;-87
2022/12/31 11:43:56;;;;;;;1.80;1.00;;;;;;;10.96;80.12;96899.13;105624;1286;22478;-89
2022/12/31 11:47:02;;;;;;;2.00;1.10;;;;;;;11.12;79.80;96919.38;105646;1302;22472;-89
2022/12/31 11:49:55;;;;;;;1.70;0.90;;;;;;;11.17;79.56;96931.55;105587;1295;27959;-90
2022/12/31 11:52:47;;;;;;;6.60;1.60;;;;;;;11.23;79.17;96938.04;105617;1292;132902;-87
2022/12/31 11:55:39;;;;;;;2.40;0.80;;;;;;;11.26;78.85;96933.20;105575;1290;25428;-88
2022/12/31 11:58:19;;;;;;;1.20;0.90;;;;;;;11.25;78.93;96935.31;105685;1288;22484;-91
2022/12/31 12:01:00;;;;;;;1.20;0.90;;;;;;;11.27;78.96;96926.73;105538;1274;34456;-89
2022/12/31 12:03:37;;;;;;;1.10;0.70;;;;;;;11.33;78.87;96933.00;105602;1303;22984;-90
2022/12/31 12:06:16;;;;;;;1.30;1.10;;;;;;;11.38;78.39;96923.30;105490;1279;25235;-87
2022/12/31 12:08:48;;;;;;;1.60;0.70;;;;;;;11.40;78.47;96925.23;105661;1288;22477;-88
2022/12/31 12:11:25;;;;;;;2.10;0.60;;;;;;;11.40;78.39;96916.08;105560;1302;29600;-90
2022/12/31 12:13:58;;;;;;;1.50;0.90;;;;;;;11.41;78.24;96924.90;105572;1294;25695;-90
2022/12/31 12:16:32;;;;;;;1.70;1.20;;;;;;;11.43;78.23;96915.96;105554;1302;26432;-87
2022/12/31 12:19:17;;;;;;;2.10;1.20;;;;;;;11.46;78.48;96902.02;105570;1266;57090;-85
2022/12/31 12:21:51;;;;;;;2.50;1.60;;;;;;;11.47;78.59;96913.49;105611;1284;24592;-92
2022/12/31 12:24:26;;;;;;;2.30;1.70;;;;;;;11.48;78.58;96912.30;105695;1280;22489;-90
2022/12/31 12:27:01;;;;;;;3.40;2.10;;;;;;;11.42;78.60;96913.25;105666;1280;24305;-91
2022/12/31 12:29:37;;;;;;;3.00;2.20;;;;;;;11.31;78.54;96906.63;105551;1296;27039;-91
2022/12/31 12:32:18;;;;;;;5.60;2.50;;;;;;;11.21;78.76;96912.52;105525;1298;47060;-92